sensor_id;sensor_type;location;lat;lon;timestamp;pressure;altitude;pressure_sealevel;temperature;humidity
37291;BME280;23175;-33.706;151.094;2022-11-20T00:02:19;98126.74;;;19.49;25.89
37291;BME280;23175;-33.706;151.094;2022-11-20T00:04:49;98130.13;;;19.61;25.57
37291;BME280;23175;-33.706;151.094;2022-11-20T00:07:19;98125.29;;;19.36;25.79
37291;BME280;23175;-33.706;151.094;2022-11-20T00:09:49;98138.41;;;18.33;27.26
37291;BME280;23175;-33.706;151.094;2022-11-20T00:12:19;98152.66;;;19.84;26.69
37291;BME280;23175;-33.706;151.094;2022-11-20T00:14:49;98160.37;;;19.00;26.70
37291;BME280;23175;-33.706;151.094;2022-11-20T00:17:19;98157.42;;;18.10;27.81
37291;BME280;23175;-33.706;151.094;2022-11-20T00:19:49;98154.80;;;18.15;28.04
37291;BME280;23175;-33.706;151.094;2022-11-20T00:22:19;98161.08;;;19.14;28.03
37291;BME280;23175;-33.706;151.094;2022-11-20T00:24:49;98162.29;;;19.56;26.64
37291;BME280;23175;-33.706;151.094;2022-11-20T00:27:19;98171.66;;;18.48;27.70
37291;BME280;23175;-33.706;151.094;2022-11-20T00:29:49;98178.49;;;18.06;28.43
37291;BME280;23175;-33.706;151.094;2022-11-20T00:32:19;98166.52;;;18.51;28.34
37291;BME280;23175;-33.706;151.094;2022-11-20T00:34:49;98175.94;;;18.09;28.39
37291;BME280;23175;-33.706;151.094;2022-11-20T00:37:19;98166.77;;;19.47;27.95
37291;BME280;23175;-33.706;151.094;2022-11-20T00:39:49;98188.06;;;18.64;28.47
37291;BME280;23175;-33.706;151.094;2022-11-20T00:42:20;98184.23;;;18.24;28.52
37291;BME280;23175;-33.706;151.094;2022-11-20T00:44:50;98183.11;;;17.48;27.15
37291;BME280;23175;-33.706;151.094;2022-11-20T00:47:20;98186.89;;;17.03;27.21
37291;BME280;23175;-33.706;151.094;2022-11-20T00:49:50;98178.72;;;18.36;27.00
37291;BME280;23175;-33.706;151.094;2022-11-20T00:52:20;98190.22;;;19.92;24.99
37291;BME280;23175;-33.706;151.094;2022-11-20T00:54:50;98197.46;;;18.53;26.55
37291;BME280;23175;-33.706;151.094;2022-11-20T00:57:20;98203.76;;;18.37;26.91
37291;BME280;23175;-33.706;151.094;2022-11-20T00:59:50;98199.34;;;18.71;25.80
37291;BME280;23175;-33.706;151.094;2022-11-20T01:02:20;98195.97;;;18.14;26.14
37291;BME280;23175;-33.706;151.094;2022-11-20T01:04:50;98182.90;;;17.87;26.86
37291;BME280;23175;-33.706;151.094;2022-11-20T01:07:20;98174.56;;;18.44;25.69
37291;BME280;23175;-33.706;151.094;2022-11-20T01:09:50;98175.73;;;18.88;25.73
37291;BME280;23175;-33.706;151.094;2022-11-20T01:12:22;98173.99;;;18.14;25.53
37291;BME280;23175;-33.706;151.094;2022-11-20T01:14:52;98155.58;;;18.76;25.60
37291;BME280;23175;-33.706;151.094;2022-11-20T01:17:22;98173.45;;;17.26;26.41
37291;BME280;23175;-33.706;151.094;2022-11-20T01:19:52;98167.01;;;18.31;25.66
37291;BME280;23175;-33.706;151.094;2022-11-20T01:22:22;98178.48;;;17.68;25.80
37291;BME280;23175;-33.706;151.094;2022-11-20T01:24:52;98185.91;;;16.82;26.90
37291;BME280;23175;-33.706;151.094;2022-11-20T01:27:22;98176.95;;;17.75;26.28
37291;BME280;23175;-33.706;151.094;2022-11-20T01:29:52;98165.38;;;18.37;25.41
37291;BME280;23175;-33.706;151.094;2022-11-20T01:32:22;98164.31;;;18.13;25.36
37291;BME280;23175;-33.706;151.094;2022-11-20T01:34:52;98176.56;;;17.59;25.82
37291;BME280;23175;-33.706;151.094;2022-11-20T01:37:22;98189.01;;;17.37;25.82
37291;BME280;23175;-33.706;151.094;2022-11-20T01:39:52;98175.80;;;18.71;23.94
37291;BME280;23175;-33.706;151.094;2022-11-20T01:42:22;98165.50;;;18.08;23.51
37291;BME280;23175;-33.706;151.094;2022-11-20T01:44:55;98181.75;;;19.28;22.59
37291;BME280;23175;-33.706;151.094;2022-11-20T01:47:30;98165.31;;;17.15;23.34
37291;BME280;23175;-33.706;151.094;2022-11-20T01:50:05;98163.80;;;18.59;23.44
37291;BME280;23175;-33.706;151.094;2022-11-20T01:52:42;98184.71;;;18.53;23.61
37291;BME280;23175;-33.706;151.094;2022-11-20T01:55:19;98176.31;;;19.23;21.93
37291;BME280;23175;-33.706;151.094;2022-11-20T01:57:52;98158.25;;;18.79;22.01
37291;BME280;23175;-33.706;151.094;2022-11-20T02:00:22;98168.18;;;17.49;23.61
37291;BME280;23175;-33.706;151.094;2022-11-20T02:02:55;98162.49;;;17.34;23.89
37291;BME280;23175;-33.706;151.094;2022-11-20T02:05:32;98165.68;;;17.49;23.29
37291;BME280;23175;-33.706;151.094;2022-11-20T02:08:04;98178.42;;;19.48;22.53
37291;BME280;23175;-33.706;151.094;2022-11-20T02:10:35;98175.28;;;18.78;22.45
37291;BME280;23175;-33.706;151.094;2022-11-20T02:13:06;98187.72;;;18.87;21.88
37291;BME280;23175;-33.706;151.094;2022-11-20T02:15:37;98178.29;;;18.42;22.33
37291;BME280;23175;-33.706;151.094;2022-11-20T02:18:08;98174.08;;;18.49;22.03
37291;BME280;23175;-33.706;151.094;2022-11-20T02:20:40;98185.75;;;19.22;22.27
37291;BME280;23175;-33.706;151.094;2022-11-20T02:23:15;98181.89;;;20.73;21.72
37291;BME280;23175;-33.706;151.094;2022-11-20T02:25:47;98213.58;;;19.99;22.53
37291;BME280;23175;-33.706;151.094;2022-11-20T02:28:18;98162.33;;;19.53;22.13
37291;BME280;23175;-33.706;151.094;2022-11-20T02:30:48;98182.84;;;18.77;24.00
37291;BME280;23175;-33.706;151.094;2022-11-20T02:33:18;98211.37;;;20.74;22.48
37291;BME280;23175;-33.706;151.094;2022-11-20T02:35:48;98178.88;;;18.83;23.42
37291;BME280;23175;-33.706;151.094;2022-11-20T02:38:19;98199.12;;;19.72;23.18
37291;BME280;23175;-33.706;151.094;2022-11-20T02:40:49;98201.44;;;19.64;23.18
37291;BME280;23175;-33.706;151.094;2022-11-20T02:43:19;98195.74;;;19.33;23.90
37291;BME280;23175;-33.706;151.094;2022-11-20T02:45:49;98205.10;;;20.32;23.73
37291;BME280;23175;-33.706;151.094;2022-11-20T02:48:19;98205.98;;;18.98;24.08
37291;BME280;23175;-33.706;151.094;2022-11-20T02:50:49;98201.15;;;19.63;24.04
37291;BME280;23175;-33.706;151.094;2022-11-20T02:53:19;98209.11;;;20.75;24.03
37291;BME280;23175;-33.706;151.094;2022-11-20T02:55:49;98201.95;;;19.13;25.31
37291;BME280;23175;-33.706;151.094;2022-11-20T02:58:19;98216.27;;;19.21;25.32
37291;BME280;23175;-33.706;151.094;2022-11-20T03:00:48;98245.54;;;19.56;25.42
37291;BME280;23175;-33.706;151.094;2022-11-20T03:03:18;98256.32;;;19.60;24.96
37291;BME280;23175;-33.706;151.094;2022-11-20T03:05:48;98260.38;;;19.40;23.59
37291;BME280;23175;-33.706;151.094;2022-11-20T03:08:18;98258.08;;;18.40;24.55
37291;BME280;23175;-33.706;151.094;2022-11-20T03:10:48;98246.92;;;17.76;24.31
37291;BME280;23175;-33.706;151.094;2022-11-20T03:13:18;98242.22;;;18.89;23.94
37291;BME280;23175;-33.706;151.094;2022-11-20T03:15:48;98238.78;;;19.11;24.23
37291;BME280;23175;-33.706;151.094;2022-11-20T03:18:18;98265.13;;;18.44;24.55
37291;BME280;23175;-33.706;151.094;2022-11-20T03:20:48;98242.54;;;19.64;23.49
37291;BME280;23175;-33.706;151.094;2022-11-20T03:23:18;98234.31;;;18.74;24.03
37291;BME280;23175;-33.706;151.094;2022-11-20T03:25:48;98272.81;;;19.37;24.33
37291;BME280;23175;-33.706;151.094;2022-11-20T03:28:18;98287.73;;;18.26;24.81
37291;BME280;23175;-33.706;151.094;2022-11-20T03:30:48;98263.03;;;17.90;25.43
37291;BME280;23175;-33.706;151.094;2022-11-20T03:33:18;98279.55;;;18.28;26.29
37291;BME280;23175;-33.706;151.094;2022-11-20T03:35:48;98272.70;;;18.47;25.46
37291;BME280;23175;-33.706;151.094;2022-11-20T03:38:18;98263.70;;;18.80;26.40
37291;BME280;23175;-33.706;151.094;2022-11-20T03:40:48;98284.26;;;18.52;25.95
37291;BME280;23175;-33.706;151.094;2022-11-20T03:43:18;98291.68;;;19.03;26.25
37291;BME280;23175;-33.706;151.094;2022-11-20T03:45:49;98312.68;;;19.27;25.24
37291;BME280;23175;-33.706;151.094;2022-11-20T03:48:18;98293.19;;;19.20;25.00
37291;BME280;23175;-33.706;151.094;2022-11-20T03:50:48;98288.53;;;17.95;26.25
37291;BME280;23175;-33.706;151.094;2022-11-20T03:53:19;98278.31;;;18.64;25.96
37291;BME280;23175;-33.706;151.094;2022-11-20T03:55:52;98276.38;;;18.68;25.53
37291;BME280;23175;-33.706;151.094;2022-11-20T03:58:23;98283.51;;;18.68;24.76
37291;BME280;23175;-33.706;151.094;2022-11-20T04:00:53;98262.22;;;19.01;25.47
37291;BME280;23175;-33.706;151.094;2022-11-20T04:03:23;98277.83;;;18.72;25.26
37291;BME280;23175;-33.706;151.094;2022-11-20T04:05:53;98274.61;;;19.36;24.95
37291;BME280;23175;-33.706;151.094;2022-11-20T04:08:23;98283.62;;;19.22;24.49
37291;BME280;23175;-33.706;151.094;2022-11-20T04:10:53;98281.88;;;18.55;24.05
37291;BME280;23175;-33.706;151.094;2022-11-20T04:13:23;98283.00;;;17.08;23.74
37291;BME280;23175;-33.706;151.094;2022-11-20T04:15:58;98284.95;;;18.42;23.08
37291;BME280;23175;-33.706;151.094;2022-11-20T04:18:28;98280.65;;;18.16;23.48
37291;BME280;23175;-33.706;151.094;2022-11-20T04:20:59;98291.75;;;19.44;23.37
37291;BME280;23175;-33.706;151.094;2022-11-20T04:23:29;98284.33;;;19.72;23.23
37291;BME280;23175;-33.706;151.094;2022-11-20T04:26:03;98270.76;;;19.20;23.30
37291;BME280;23175;-33.706;151.094;2022-11-20T04:28:34;98287.15;;;18.18;23.97
37291;BME280;23175;-33.706;151.094;2022-11-20T04:31:05;98273.74;;;17.89;23.69
37291;BME280;23175;-33.706;151.094;2022-11-20T04:33:36;98298.03;;;18.75;23.26
37291;BME280;23175;-33.706;151.094;2022-11-20T04:36:10;98263.91;;;18.29;23.68
37291;BME280;23175;-33.706;151.094;2022-11-20T04:38:41;98256.42;;;18.86;24.15
37291;BME280;23175;-33.706;151.094;2022-11-20T04:41:15;98278.62;;;19.46;23.43
37291;BME280;23175;-33.706;151.094;2022-11-20T04:43:48;98259.80;;;19.33;23.75
37291;BME280;23175;-33.706;151.094;2022-11-20T04:46:20;98251.00;;;18.84;23.61
37291;BME280;23175;-33.706;151.094;2022-11-20T04:48:50;98261.66;;;19.03;23.09
37291;BME280;23175;-33.706;151.094;2022-11-20T04:51:20;98265.12;;;19.06;22.54
37291;BME280;23175;-33.706;151.094;2022-11-20T04:53:50;98240.22;;;19.10;21.71
37291;BME280;23175;-33.706;151.094;2022-11-20T04:56:20;98247.15;;;19.02;21.84
37291;BME280;23175;-33.706;151.094;2022-11-20T04:58:51;98252.89;;;18.56;21.23
37291;BME280;23175;-33.706;151.094;2022-11-20T05:01:22;98270.54;;;17.82;21.34
37291;BME280;23175;-33.706;151.094;2022-11-20T05:03:53;98258.99;;;19.10;20.64
37291;BME280;23175;-33.706;151.094;2022-11-20T05:06:23;98257.68;;;18.10;21.08
37291;BME280;23175;-33.706;151.094;2022-11-20T05:08:53;98243.84;;;18.23;21.05
37291;BME280;23175;-33.706;151.094;2022-11-20T05:11:23;98255.90;;;18.26;20.97
37291;BME280;23175;-33.706;151.094;2022-11-20T05:13:53;98264.54;;;18.56;21.65
37291;BME280;23175;-33.706;151.094;2022-11-20T05:16:24;98250.41;;;18.25;20.34
37291;BME280;23175;-33.706;151.094;2022-11-20T05:18:55;98241.27;;;18.97;20.22
37291;BME280;23175;-33.706;151.094;2022-11-20T05:21:25;98249.75;;;18.25;20.80
37291;BME280;23175;-33.706;151.094;2022-11-20T05:23:55;98255.30;;;18.63;20.32
37291;BME280;23175;-33.706;151.094;2022-11-20T05:26:25;98261.94;;;17.94;20.61
37291;BME280;23175;-33.706;151.094;2022-11-20T05:28:55;98252.63;;;18.51;21.03
37291;BME280;23175;-33.706;151.094;2022-11-20T05:31:25;98254.50;;;19.27;20.84
37291;BME280;23175;-33.706;151.094;2022-11-20T05:33:57;98256.36;;;19.64;19.97
37291;BME280;23175;-33.706;151.094;2022-11-20T05:36:26;98279.30;;;17.65;19.78
37291;BME280;23175;-33.706;151.094;2022-11-20T05:38:56;98267.13;;;18.83;20.47
37291;BME280;23175;-33.706;151.094;2022-11-20T05:41:26;98278.69;;;17.77;21.35
37291;BME280;23175;-33.706;151.094;2022-11-20T05:43:57;98280.02;;;18.95;20.37
37291;BME280;23175;-33.706;151.094;2022-11-20T05:46:27;98284.56;;;17.28;21.11
37291;BME280;23175;-33.706;151.094;2022-11-20T05:48:58;98285.44;;;17.71;21.47
37291;BME280;23175;-33.706;151.094;2022-11-20T05:51:28;98281.62;;;17.48;21.40
37291;BME280;23175;-33.706;151.094;2022-11-20T05:53:58;98305.07;;;17.77;22.19
37291;BME280;23175;-33.706;151.094;2022-11-20T05:56:28;98292.91;;;18.25;22.06
37291;BME280;23175;-33.706;151.094;2022-11-20T05:58:58;98302.30;;;17.62;22.39
37291;BME280;23175;-33.706;151.094;2022-11-20T06:01:28;98319.14;;;16.73;21.64
37291;BME280;23175;-33.706;151.094;2022-11-20T06:03:59;98318.53;;;18.89;21.73
37291;BME280;23175;-33.706;151.094;2022-11-20T06:06:29;98296.67;;;17.22;21.82
37291;BME280;23175;-33.706;151.094;2022-11-20T06:08:59;98305.74;;;18.55;21.51
37291;BME280;23175;-33.706;151.094;2022-11-20T06:11:29;98293.80;;;16.92;22.38
37291;BME280;23175;-33.706;151.094;2022-11-20T06:13:59;98306.31;;;17.79;21.93
37291;BME280;23175;-33.706;151.094;2022-11-20T06:16:30;98311.38;;;17.34;21.79
37291;BME280;23175;-33.706;151.094;2022-11-20T06:19:00;98307.24;;;18.47;21.91
37291;BME280;23175;-33.706;151.094;2022-11-20T06:21:30;98297.41;;;16.92;21.90
37291;BME280;23175;-33.706;151.094;2022-11-20T06:24:00;98307.07;;;18.69;21.25
37291;BME280;23175;-33.706;151.094;2022-11-20T06:26:30;98306.60;;;17.06;21.74
37291;BME280;23175;-33.706;151.094;2022-11-20T06:29:00;98302.56;;;18.00;21.45
37291;BME280;23175;-33.706;151.094;2022-11-20T06:31:30;98300.49;;;17.40;21.10
37291;BME280;23175;-33.706;151.094;2022-11-20T06:34:00;98303.39;;;17.64;22.03
37291;BME280;23175;-33.706;151.094;2022-11-20T06:36:30;98303.33;;;16.95;21.80
37291;BME280;23175;-33.706;151.094;2022-11-20T06:39:00;98315.77;;;17.88;21.60
37291;BME280;23175;-33.706;151.094;2022-11-20T06:41:30;98309.21;;;17.20;22.02
37291;BME280;23175;-33.706;151.094;2022-11-20T06:44:00;98312.95;;;17.54;21.46
37291;BME280;23175;-33.706;151.094;2022-11-20T06:46:31;98342.14;;;16.79;20.91
37291;BME280;23175;-33.706;151.094;2022-11-20T06:49:01;98333.81;;;17.96;20.71
37291;BME280;23175;-33.706;151.094;2022-11-20T06:51:33;98336.79;;;18.58;19.30
37291;BME280;23175;-33.706;151.094;2022-11-20T06:54:04;98349.77;;;18.71;19.98
37291;BME280;23175;-33.706;151.094;2022-11-20T06:56:34;98348.69;;;17.18;20.50
37291;BME280;23175;-33.706;151.094;2022-11-20T06:59:06;98345.72;;;17.70;20.40
37291;BME280;23175;-33.706;151.094;2022-11-20T07:01:36;98355.81;;;17.63;20.67
37291;BME280;23175;-33.706;151.094;2022-11-20T07:04:07;98381.95;;;17.91;21.59
37291;BME280;23175;-33.706;151.094;2022-11-20T07:06:37;98367.74;;;17.29;20.54
37291;BME280;23175;-33.706;151.094;2022-11-20T07:09:07;98362.55;;;17.19;20.96
37291;BME280;23175;-33.706;151.094;2022-11-20T07:11:37;98364.11;;;17.71;20.58
37291;BME280;23175;-33.706;151.094;2022-11-20T07:14:08;98384.12;;;17.53;21.55
37291;BME280;23175;-33.706;151.094;2022-11-20T07:16:38;98365.06;;;18.05;20.68
37291;BME280;23175;-33.706;151.094;2022-11-20T07:19:08;98374.08;;;17.34;20.87
37291;BME280;23175;-33.706;151.094;2022-11-20T07:21:38;98368.88;;;16.95;20.81
37291;BME280;23175;-33.706;151.094;2022-11-20T07:24:08;98380.09;;;16.94;21.38
37291;BME280;23175;-33.706;151.094;2022-11-20T07:26:38;98382.01;;;17.51;20.77
37291;BME280;23175;-33.706;151.094;2022-11-20T07:29:08;98377.81;;;17.45;20.71
37291;BME280;23175;-33.706;151.094;2022-11-20T07:31:38;98384.31;;;17.08;21.01
37291;BME280;23175;-33.706;151.094;2022-11-20T07:34:08;98393.15;;;17.79;21.36
37291;BME280;23175;-33.706;151.094;2022-11-20T07:36:38;98388.08;;;17.33;21.45
37291;BME280;23175;-33.706;151.094;2022-11-20T07:39:08;98389.88;;;16.75;22.03
37291;BME280;23175;-33.706;151.094;2022-11-20T07:41:38;98407.41;;;17.18;21.93
37291;BME280;23175;-33.706;151.094;2022-11-20T07:44:08;98403.40;;;16.73;22.57
37291;BME280;23175;-33.706;151.094;2022-11-20T07:46:38;98398.42;;;16.19;22.43
37291;BME280;23175;-33.706;151.094;2022-11-20T07:49:08;98402.26;;;17.43;21.79
37291;BME280;23175;-33.706;151.094;2022-11-20T07:51:39;98410.96;;;16.36;22.37
37291;BME280;23175;-33.706;151.094;2022-11-20T07:54:09;98407.86;;;16.44;22.12
37291;BME280;23175;-33.706;151.094;2022-11-20T07:56:39;98408.83;;;16.76;22.31
37291;BME280;23175;-33.706;151.094;2022-11-20T07:59:09;98412.83;;;17.00;22.16
37291;BME280;23175;-33.706;151.094;2022-11-20T08:01:39;98419.99;;;17.69;21.00
37291;BME280;23175;-33.706;151.094;2022-11-20T08:04:09;98425.29;;;16.49;21.60
37291;BME280;23175;-33.706;151.094;2022-11-20T08:06:39;98418.82;;;17.04;20.29
37291;BME280;23175;-33.706;151.094;2022-11-20T08:09:09;98427.33;;;17.96;20.38
37291;BME280;23175;-33.706;151.094;2022-11-20T08:11:39;98431.56;;;16.28;21.20
37291;BME280;23175;-33.706;151.094;2022-11-20T08:14:10;98439.28;;;16.42;20.76
37291;BME280;23175;-33.706;151.094;2022-11-20T08:16:40;98448.95;;;17.74;20.43
37291;BME280;23175;-33.706;151.094;2022-11-20T08:19:11;98449.88;;;16.46;21.44
37291;BME280;23175;-33.706;151.094;2022-11-20T08:21:42;98452.10;;;16.44;21.57
37291;BME280;23175;-33.706;151.094;2022-11-20T08:24:12;98458.89;;;15.71;21.40
37291;BME280;23175;-33.706;151.094;2022-11-20T08:26:43;98473.71;;;16.06;21.69
37291;BME280;23175;-33.706;151.094;2022-11-20T08:29:13;98476.90;;;16.36;20.82
37291;BME280;23175;-33.706;151.094;2022-11-20T08:31:43;98473.89;;;15.38;21.66
37291;BME280;23175;-33.706;151.094;2022-11-20T08:34:13;98480.46;;;16.68;21.57
37291;BME280;23175;-33.706;151.094;2022-11-20T08:36:43;98487.31;;;16.09;21.69
37291;BME280;23175;-33.706;151.094;2022-11-20T08:39:14;98503.14;;;16.04;23.56
37291;BME280;23175;-33.706;151.094;2022-11-20T08:41:44;98508.05;;;16.28;21.61
37291;BME280;23175;-33.706;151.094;2022-11-20T08:44:15;98513.21;;;16.68;22.15
37291;BME280;23175;-33.706;151.094;2022-11-20T08:46:45;98524.44;;;15.84;22.10
37291;BME280;23175;-33.706;151.094;2022-11-20T08:49:16;98526.31;;;15.25;22.60
37291;BME280;23175;-33.706;151.094;2022-11-20T08:51:46;98533.45;;;16.33;21.93
37291;BME280;23175;-33.706;151.094;2022-11-20T08:54:17;98540.72;;;16.33;22.64
37291;BME280;23175;-33.706;151.094;2022-11-20T08:56:47;98539.98;;;16.16;21.59
37291;BME280;23175;-33.706;151.094;2022-11-20T08:59:17;98543.20;;;16.72;21.64
37291;BME280;23175;-33.706;151.094;2022-11-20T09:01:47;98549.96;;;16.82;21.56
37291;BME280;23175;-33.706;151.094;2022-11-20T09:04:18;98558.01;;;16.40;22.63
37291;BME280;23175;-33.706;151.094;2022-11-20T09:06:49;98574.81;;;16.10;22.48
37291;BME280;23175;-33.706;151.094;2022-11-20T09:09:19;98576.99;;;15.83;23.50
37291;BME280;23175;-33.706;151.094;2022-11-20T09:11:49;98577.96;;;17.80;20.96
37291;BME280;23175;-33.706;151.094;2022-11-20T09:14:19;98592.97;;;16.48;21.78
37291;BME280;23175;-33.706;151.094;2022-11-20T09:16:49;98582.21;;;16.02;22.77
37291;BME280;23175;-33.706;151.094;2022-11-20T09:19:19;98581.66;;;16.32;22.16
37291;BME280;23175;-33.706;151.094;2022-11-20T09:21:49;98592.08;;;15.49;22.88
37291;BME280;23175;-33.706;151.094;2022-11-20T09:24:19;98594.87;;;15.38;23.28
37291;BME280;23175;-33.706;151.094;2022-11-20T09:26:50;98594.35;;;15.55;22.66
37291;BME280;23175;-33.706;151.094;2022-11-20T09:29:20;98597.76;;;16.09;22.61
37291;BME280;23175;-33.706;151.094;2022-11-20T09:31:50;98602.01;;;19.60;20.29
37291;BME280;23175;-33.706;151.094;2022-11-20T09:34:20;98605.74;;;16.14;22.90
37291;BME280;23175;-33.706;151.094;2022-11-20T09:36:50;98606.99;;;16.34;22.25
37291;BME280;23175;-33.706;151.094;2022-11-20T09:39:20;98615.86;;;17.84;21.44
37291;BME280;23175;-33.706;151.094;2022-11-20T09:42:12;98611.55;;;17.04;21.65
37291;BME280;23175;-33.706;151.094;2022-11-20T09:44:57;98620.87;;;17.15;21.64
37291;BME280;23175;-33.706;151.094;2022-11-20T09:47:41;98620.88;;;16.18;21.97
37291;BME280;23175;-33.706;151.094;2022-11-20T09:50:25;98628.46;;;16.86;21.93
37291;BME280;23175;-33.706;151.094;2022-11-20T09:53:12;98632.73;;;16.85;22.14
37291;BME280;23175;-33.706;151.094;2022-11-20T09:55:43;98632.79;;;18.04;21.26
37291;BME280;23175;-33.706;151.094;2022-11-20T09:58:24;98637.43;;;17.65;21.19
37291;BME280;23175;-33.706;151.094;2022-11-20T10:00:56;98641.09;;;18.43;20.79
37291;BME280;23175;-33.706;151.094;2022-11-20T10:03:35;98637.55;;;17.18;21.64
37291;BME280;23175;-33.706;151.094;2022-11-20T10:06:13;98644.00;;;19.10;20.47
37291;BME280;23175;-33.706;151.094;2022-11-20T10:08:48;98649.21;;;18.14;21.49
37291;BME280;23175;-33.706;151.094;2022-11-20T10:11:27;98643.73;;;20.93;19.63
37291;BME280;23175;-33.706;151.094;2022-11-20T10:14:07;98643.35;;;20.84;19.51
37291;BME280;23175;-33.706;151.094;2022-11-20T10:16:49;98649.88;;;20.04;20.13
37291;BME280;23175;-33.706;151.094;2022-11-20T10:19:37;98655.12;;;18.79;20.55
37291;BME280;23175;-33.706;151.094;2022-11-20T10:22:20;98657.46;;;21.43;19.30
37291;BME280;23175;-33.706;151.094;2022-11-20T10:24:58;98652.46;;;18.71;21.29
37291;BME280;23175;-33.706;151.094;2022-11-20T10:27:50;98656.05;;;20.63;20.56
37291;BME280;23175;-33.706;151.094;2022-11-20T10:30:25;98659.04;;;20.50;19.95
37291;BME280;23175;-33.706;151.094;2022-11-20T10:33:01;98663.93;;;21.82;19.97
37291;BME280;23175;-33.706;151.094;2022-11-20T10:35:38;98664.77;;;19.48;21.63
37291;BME280;23175;-33.706;151.094;2022-11-20T10:38:16;98667.66;;;18.78;22.75
37291;BME280;23175;-33.706;151.094;2022-11-20T10:40:52;98675.49;;;19.51;22.24
37291;BME280;23175;-33.706;151.094;2022-11-20T10:43:32;98678.77;;;18.02;23.47
37291;BME280;23175;-33.706;151.094;2022-11-20T10:46:05;98675.83;;;20.19;22.20
37291;BME280;23175;-33.706;151.094;2022-11-20T10:48:39;98679.05;;;17.48;24.52
37291;BME280;23175;-33.706;151.094;2022-11-20T10:51:25;98681.22;;;19.05;23.21
37291;BME280;23175;-33.706;151.094;2022-11-20T10:54:12;98684.39;;;18.58;23.24
37291;BME280;23175;-33.706;151.094;2022-11-20T10:56:49;98690.40;;;18.24;23.09
37291;BME280;23175;-33.706;151.094;2022-11-20T11:00:00;98696.99;;;19.14;22.56
37291;BME280;23175;-33.706;151.094;2022-11-20T11:02:38;98703.96;;;19.10;22.91
37291;BME280;23175;-33.706;151.094;2022-11-20T11:05:22;98701.14;;;18.92;23.25
37291;BME280;23175;-33.706;151.094;2022-11-20T11:07:56;98703.20;;;18.79;23.30
37291;BME280;23175;-33.706;151.094;2022-11-20T11:10:32;98702.87;;;18.60;22.94
37291;BME280;23175;-33.706;151.094;2022-11-20T11:13:05;98698.72;;;18.98;23.71
37291;BME280;23175;-33.706;151.094;2022-11-20T11:15:40;98696.60;;;17.49;25.68
37291;BME280;23175;-33.706;151.094;2022-11-20T11:18:22;98700.10;;;19.12;24.03
37291;BME280;23175;-33.706;151.094;2022-11-20T11:20:54;98697.85;;;17.91;24.93
37291;BME280;23175;-33.706;151.094;2022-11-20T11:23:32;98701.85;;;15.55;25.26
37291;BME280;23175;-33.706;151.094;2022-11-20T11:26:03;98706.60;;;15.36;26.26
37291;BME280;23175;-33.706;151.094;2022-11-20T11:28:34;98703.90;;;16.93;24.63
37291;BME280;23175;-33.706;151.094;2022-11-20T11:31:04;98706.71;;;19.49;22.84
37291;BME280;23175;-33.706;151.094;2022-11-20T11:33:34;98707.86;;;18.93;23.19
37291;BME280;23175;-33.706;151.094;2022-11-20T11:36:16;98706.65;;;17.75;24.26
37291;BME280;23175;-33.706;151.094;2022-11-20T11:38:48;98709.68;;;16.53;25.04
37291;BME280;23175;-33.706;151.094;2022-11-20T11:41:25;98708.42;;;17.60;24.63
37291;BME280;23175;-33.706;151.094;2022-11-20T11:44:00;98710.22;;;16.58;25.23
37291;BME280;23175;-33.706;151.094;2022-11-20T11:46:33;98709.48;;;16.47;25.26
37291;BME280;23175;-33.706;151.094;2022-11-20T11:49:16;98715.50;;;17.91;25.13
37291;BME280;23175;-33.706;151.094;2022-11-20T11:51:59;98724.96;;;16.02;26.77
37291;BME280;23175;-33.706;151.094;2022-11-20T11:54:37;98721.82;;;18.38;24.06
37291;BME280;23175;-33.706;151.094;2022-11-20T11:57:14;98727.73;;;18.65;25.43
37291;BME280;23175;-33.706;151.094;2022-11-20T11:59:57;98720.84;;;16.98;26.25
37291;BME280;23175;-33.706;151.094;2022-11-20T12:02:37;98722.30;;;18.49;24.55
37291;BME280;23175;-33.706;151.094;2022-11-20T12:05:18;98720.79;;;16.21;26.19
37291;BME280;23175;-33.706;151.094;2022-11-20T12:07:51;98721.87;;;18.39;26.25
37291;BME280;23175;-33.706;151.094;2022-11-20T12:10:28;98721.62;;;19.21;24.58
37291;BME280;23175;-33.706;151.094;2022-11-20T12:13:12;98720.30;;;19.77;23.53
37291;BME280;23175;-33.706;151.094;2022-11-20T12:15:47;98719.89;;;19.61;24.09
37291;BME280;23175;-33.706;151.094;2022-11-20T12:18:20;98717.86;;;16.59;26.16
37291;BME280;23175;-33.706;151.094;2022-11-20T12:21:07;98717.18;;;19.81;24.25
37291;BME280;23175;-33.706;151.094;2022-11-20T12:23:49;98714.55;;;18.04;25.90
37291;BME280;23175;-33.706;151.094;2022-11-20T12:26:31;98716.76;;;18.50;24.70
37291;BME280;23175;-33.706;151.094;2022-11-20T12:29:12;98713.84;;;14.83;29.21
37291;BME280;23175;-33.706;151.094;2022-11-20T12:31:59;98706.29;;;17.11;25.61
37291;BME280;23175;-33.706;151.094;2022-11-20T12:34:47;98706.38;;;16.57;26.72
37291;BME280;23175;-33.706;151.094;2022-11-20T12:37:32;98703.94;;;17.57;26.96
37291;BME280;23175;-33.706;151.094;2022-11-20T12:40:19;98705.02;;;18.19;26.35
37291;BME280;23175;-33.706;151.094;2022-11-20T12:43:02;98711.67;;;16.49;27.97
37291;BME280;23175;-33.706;151.094;2022-11-20T12:46:29;98706.68;;;17.91;26.03
37291;BME280;23175;-33.706;151.094;2022-11-20T12:49:17;98695.15;;;17.33;26.56
37291;BME280;23175;-33.706;151.094;2022-11-20T12:52:26;98696.89;;;18.51;25.78
37291;BME280;23175;-33.706;151.094;2022-11-20T12:55:10;98687.07;;;17.09;27.35
37291;BME280;23175;-33.706;151.094;2022-11-20T12:57:48;98688.36;;;19.13;25.47
37291;BME280;23175;-33.706;151.094;2022-11-20T13:00:22;98685.56;;;17.42;27.37